Time;durP1;ratioP1;P1;durP2;ratioP2;P2;SDS_P1;SDS_P2;PMS_P1;PMS_P2;Temp;Humidity;BMP_temperature;BMP_pressure;BME280_temperature;BME280_humidity;BME280_pressure;Samples;Min_cycle;Max_cycle;Signal;HPM_P1;HPM_P2
2023/12/19 00:00:03;;;;;;;21.88;4.78;;;12.70;99.90;;;;;;6272138;28;20056;-83
2023/12/19 00:03:04;;;;;;;24.75;4.28;;;12.70;99.90;;;;;;6249287;28;20405;-85
2023/12/19 00:06:06;;;;;;;19.95;4.43;;;12.70;99.90;;;;;;6272932;28;20041;-84
2023/12/19 00:09:08;;;;;;;24.45;4.35;;;12.60;99.90;;;;;;6261917;28;20147;-84
2023/12/19 00:12:09;;;;;;;20.13;4.00;;;12.70;99.90;;;;;;6257220;28;20763;-84
2023/12/19 00:15:11;;;;;;;25.90;4.68;;;12.70;99.90;;;;;;6273727;28;20049;-83
2023/12/19 00:18:13;;;;;;;22.92;4.47;;;12.60;99.90;;;;;;6274726;28;20057;-84
2023/12/19 00:21:15;;;;;;;26.00;4.50;;;12.60;99.90;;;;;;6263525;28;20053;-86
2023/12/19 00:24:16;;;;;;;22.63;3.97;;;12.70;99.90;;;;;;6249420;28;20061;-84
2023/12/19 00:27:18;;;;;;;22.42;4.38;;;12.60;99.90;;;;;;6267813;28;20064;-84
2023/12/19 00:30:20;;;;;;;24.90;4.05;;;12.60;99.90;;;;;;6244016;28;20136;-85
2023/12/19 00:33:22;;;;;;;22.80;4.88;;;12.70;99.90;;;;;;6258106;28;20112;-85
2023/12/19 00:36:24;;;;;;;28.38;3.97;;;12.60;99.90;;;;;;6265529;28;20061;-85
2023/12/19 00:39:25;;;;;;;22.98;4.75;;;12.70;99.90;;;;;;6248093;28;20049;-84
2023/12/19 00:42:27;;;;;;;19.08;3.50;;;12.70;99.90;;;;;;6267291;28;20057;-85
2023/12/19 00:45:29;;;;;;;25.23;3.67;;;12.70;99.90;;;;;;6259508;28;20057;-85
2023/12/19 00:48:30;;;;;;;23.58;3.85;;;12.70;99.90;;;;;;6246306;28;20092;-82
2023/12/19 00:51:32;;;;;;;25.10;3.90;;;12.70;99.90;;;;;;6266786;28;20166;-84
2023/12/19 00:54:34;;;;;;;20.50;3.38;;;12.70;99.90;;;;;;6261285;28;20057;-83
2023/12/19 00:57:36;;;;;;;26.65;4.15;;;12.70;99.90;;;;;;6268786;28;20053;-83
2023/12/19 01:00:37;;;;;;;28.17;3.72;;;12.70;99.90;;;;;;6245648;28;20053;-87
2023/12/19 01:03:39;;;;;;;27.08;4.35;;;12.70;99.90;;;;;;6256696;28;20068;-85
2023/12/19 01:06:41;;;;;;;22.70;4.35;;;12.70;99.90;;;;;;6245568;28;20576;-83
2023/12/19 01:09:43;;;;;;;24.73;4.05;;;12.70;99.90;;;;;;6260930;28;20053;-85
2023/12/19 01:12:45;;;;;;;25.00;3.85;;;12.70;99.90;;;;;;6269109;28;20049;-84
2023/12/19 01:15:48;;;;;;;26.25;4.90;;;12.70;99.90;;;;;;6264914;28;20120;-85
2023/12/19 01:18:49;;;;;;;20.60;3.83;;;12.70;99.90;;;;;;6259802;28;20666;-83
2023/12/19 01:21:51;;;;;;;19.33;3.65;;;12.70;99.90;;;;;;6268502;28;20083;-87
2023/12/19 01:24:53;;;;;;;25.40;3.65;;;12.70;99.90;;;;;;6269628;28;20416;-85
2023/12/19 01:27:55;;;;;;;25.60;3.88;;;12.70;99.90;;;;;;6249289;28;20055;-83
2023/12/19 01:30:57;;;;;;;23.33;4.18;;;12.70;99.90;;;;;;6268652;28;20123;-83
2023/12/19 01:33:58;;;;;;;20.25;4.03;;;12.80;99.90;;;;;;6265514;28;20046;-83
2023/12/19 01:37:00;;;;;;;27.77;4.38;;;12.70;99.90;;;;;;6258486;28;20074;-84
2023/12/19 01:40:02;;;;;;;20.88;3.78;;;12.70;99.90;;;;;;6255524;28;20488;-84
2023/12/19 01:43:03;;;;;;;26.02;4.25;;;12.70;99.90;;;;;;6264423;28;20464;-85
2023/12/19 01:46:05;;;;;;;20.15;4.03;;;12.70;99.90;;;;;;6264377;28;20049;-85
2023/12/19 01:49:07;;;;;;;25.95;4.22;;;12.80;99.90;;;;;;6266722;28;20087;-85
2023/12/19 01:52:08;;;;;;;25.50;4.43;;;12.70;99.90;;;;;;6252507;28;20057;-85
2023/12/19 01:55:10;;;;;;;22.83;4.10;;;12.80;99.90;;;;;;6244609;28;20148;-85
2023/12/19 01:58:12;;;;;;;26.08;4.18;;;12.70;99.90;;;;;;6256960;28;20088;-85
2023/12/19 02:01:14;;;;;;;23.52;4.22;;;12.80;99.90;;;;;;6255460;28;20048;-84
2023/12/19 02:04:16;;;;;;;27.00;4.65;;;12.80;99.90;;;;;;6266086;28;20071;-85
2023/12/19 02:07:18;;;;;;;18.90;4.18;;;12.70;99.90;;;;;;6260819;28;20146;-85
2023/12/19 02:10:19;;;;;;;30.08;4.55;;;12.70;99.90;;;;;;6245937;28;20873;-84
2023/12/19 02:13:21;;;;;;;24.58;4.53;;;12.70;99.90;;;;;;6269115;28;20057;-85
2023/12/19 02:16:26;;;;;;;22.05;4.25;;;12.70;99.90;;;;;;6269249;28;20045;-84
2023/12/19 02:19:27;;;;;;;23.65;4.55;;;12.70;99.90;;;;;;6267720;28;20041;-84
2023/12/19 02:22:29;;;;;;;24.45;5.22;;;12.80;99.90;;;;;;6260945;28;20060;-85
2023/12/19 02:25:31;;;;;;;25.33;4.28;;;12.80;99.90;;;;;;6247299;28;20106;-84
2023/12/19 02:28:33;;;;;;;22.58;4.55;;;12.80;99.90;;;;;;6256027;28;20045;-84
2023/12/19 02:31:35;;;;;;;26.35;4.68;;;12.80;99.90;;;;;;6268446;28;20055;-84
2023/12/19 02:34:37;;;;;;;27.63;4.75;;;12.70;99.90;;;;;;6246250;28;20180;-84
2023/12/19 02:37:40;;;;;;;28.10;5.32;;;12.60;99.90;;;;;;6260560;28;20057;-85
2023/12/19 02:40:42;;;;;;;20.92;4.65;;;12.60;99.90;;;;;;6272730;28;20044;-84
2023/12/19 02:43:44;;;;;;;20.63;4.95;;;12.50;99.90;;;;;;6259439;28;20065;-84
2023/12/19 02:46:55;;;;;;;27.00;5.25;;;12.40;99.90;;;;;;6273429;28;20053;-85
2023/12/19 02:49:57;;;;;;;18.33;4.47;;;12.40;99.90;;;;;;6258418;28;20489;-84
2023/12/19 02:52:59;;;;;;;19.95;4.45;;;12.40;99.90;;;;;;6253228;28;20060;-85
2023/12/19 02:56:00;;;;;;;18.95;4.75;;;12.30;99.90;;;;;;6256932;28;20049;-85
2023/12/19 02:59:02;;;;;;;17.90;4.25;;;12.30;99.90;;;;;;6262108;28;20064;-86
2023/12/19 03:02:03;;;;;;;22.13;5.13;;;12.30;99.90;;;;;;6271938;28;20413;-85
2023/12/19 03:05:05;;;;;;;11.77;4.18;;;12.30;99.90;;;;;;6271053;28;20064;-86
2023/12/19 03:08:07;;;;;;;19.40;4.65;;;12.30;99.90;;;;;;6268093;28;20068;-87
2023/12/19 03:11:08;;;;;;;18.65;4.78;;;12.30;99.90;;;;;;6253586;28;20072;-88
2023/12/19 03:14:10;;;;;;;18.85;4.93;;;12.30;99.90;;;;;;6260919;28;20064;-87
2023/12/19 03:17:12;;;;;;;21.10;5.28;;;12.20;99.90;;;;;;6274878;28;20045;-88
2023/12/19 03:20:13;;;;;;;19.77;4.82;;;12.20;99.90;;;;;;6257528;28;20127;-88
2023/12/19 03:23:15;;;;;;;22.70;5.20;;;12.30;99.90;;;;;;6274135;28;20064;-87
2023/12/19 03:26:17;;;;;;;17.38;5.25;;;12.30;99.90;;;;;;6257696;28;20061;-87
2023/12/19 03:29:19;;;;;;;19.65;5.13;;;12.20;99.90;;;;;;6261672;28;20456;-89
2023/12/19 03:32:20;;;;;;;15.32;4.13;;;12.30;99.90;;;;;;6273143;28;20136;-88
2023/12/19 03:35:23;;;;;;;16.05;4.40;;;12.30;99.90;;;;;;6264143;28;20041;-87
2023/12/19 03:38:27;;;;;;;13.57;4.25;;;12.20;99.90;;;;;;6275856;28;20133;-86
2023/12/19 03:41:29;;;;;;;11.18;3.72;;;12.30;99.90;;;;;;6264724;28;20114;-88
2023/12/19 03:44:30;;;;;;;15.52;4.10;;;12.30;99.90;;;;;;6258822;28;20057;-89
2023/12/19 03:47:32;;;;;;;12.93;4.18;;;12.30;99.90;;;;;;6270337;28;20511;-89
2023/12/19 03:50:34;;;;;;;10.35;3.28;;;12.30;99.90;;;;;;6268285;28;20049;-89
2023/12/19 03:53:35;;;;;;;9.02;3.38;;;12.30;99.90;;;;;;6254153;28;20042;-88
2023/12/19 03:56:37;;;;;;;13.68;3.20;;;12.30;99.90;;;;;;6274316;28;20048;-89
2023/12/19 03:59:39;;;;;;;9.75;3.20;;;12.30;99.90;;;;;;6270639;28;20080;-87
2023/12/19 04:02:40;;;;;;;9.77;2.45;;;12.30;99.90;;;;;;6275336;28;20060;-90
2023/12/19 04:05:42;;;;;;;6.57;2.25;;;12.30;99.90;;;;;;6270490;28;20534;-87
2023/12/19 04:08:44;;;;;;;6.82;2.20;;;12.30;99.90;;;;;;6271715;28;20099;-88
2023/12/19 04:11:49;;;;;;;6.10;1.95;;;12.30;99.90;;;;;;6267202;28;20131;-87
2023/12/19 04:14:50;;;;;;;5.82;2.05;;;12.20;99.90;;;;;;6254208;28;20063;-87
2023/12/19 04:17:52;;;;;;;5.22;1.90;;;12.20;99.90;;;;;;6256306;28;20049;-87
2023/12/19 04:20:54;;;;;;;6.43;1.85;;;12.30;99.90;;;;;;6252137;28;20046;-87
2023/12/19 04:23:55;;;;;;;5.63;1.73;;;12.30;99.90;;;;;;6275679;28;20053;-87
2023/12/19 04:26:57;;;;;;;6.88;2.15;;;12.30;99.90;;;;;;6258572;28;20049;-87
2023/12/19 04:29:59;;;;;;;8.93;2.08;;;12.30;99.90;;;;;;6261545;28;20083;-87
2023/12/19 04:33:00;;;;;;;8.45;2.33;;;12.30;99.90;;;;;;6257082;28;20049;-86
2023/12/19 04:36:03;;;;;;;7.90;2.53;;;12.40;99.90;;;;;;6270106;28;20070;-86
2023/12/19 04:39:05;;;;;;;7.28;2.67;;;12.40;99.90;;;;;;6253971;28;20511;-87
2023/12/19 04:42:07;;;;;;;8.52;2.85;;;12.40;99.90;;;;;;6273062;28;20048;-86
2023/12/19 04:45:08;;;;;;;9.60;2.88;;;12.40;99.90;;;;;;6249899;28;20068;-88
2023/12/19 04:48:10;;;;;;;7.25;3.22;;;12.40;99.90;;;;;;6268721;28;20057;-88
2023/12/19 04:51:12;;;;;;;8.02;2.78;;;12.40;99.90;;;;;;6266898;28;20045;-86
2023/12/19 04:54:13;;;;;;;9.18;3.28;;;12.40;99.90;;;;;;6251356;28;20050;-87
2023/12/19 04:57:15;;;;;;;5.95;2.33;;;12.40;99.90;;;;;;6268261;28;20770;-86
2023/12/19 05:00:17;;;;;;;8.05;2.25;;;12.40;99.90;;;;;;6261095;28;20060;-87
2023/12/19 05:03:18;;;;;;;6.97;2.13;;;12.50;99.90;;;;;;6272643;28;20048;-86
2023/12/19 05:06:20;;;;;;;7.85;2.40;;;12.40;99.90;;;;;;6260388;28;20076;-88
2023/12/19 05:09:22;;;;;;;8.52;2.00;;;12.50;99.90;;;;;;6274014;28;20409;-87
2023/12/19 05:12:24;;;;;;;4.20;1.70;;;12.50;99.90;;;;;;6249863;28;20060;-88
2023/12/19 05:15:26;;;;;;;8.27;1.70;;;12.50;99.90;;;;;;6271631;28;20049;-88
2023/12/19 05:18:28;;;;;;;6.55;1.90;;;12.50;99.90;;;;;;6249296;28;20136;-88
2023/12/19 05:21:29;;;;;;;4.82;1.58;;;12.50;99.90;;;;;;6272793;28;20059;-89
2023/12/19 05:24:32;;;;;;;4.05;1.20;;;12.50;99.90;;;;;;6249213;28;20394;-87
2023/12/19 05:27:36;;;;;;;3.35;1.20;;;12.50;99.90;;;;;;6273385;28;20091;-89
2023/12/19 05:30:38;;;;;;;4.43;1.58;;;12.50;99.90;;;;;;6271578;28;20045;-88
2023/12/19 05:33:40;;;;;;;6.15;1.55;;;12.50;99.90;;;;;;6264821;28;20056;-89
2023/12/19 05:36:46;;;;;;;5.95;1.35;;;12.50;99.90;;;;;;6281275;28;20053;-88
2023/12/19 05:39:49;;;;;;;4.75;1.20;;;12.50;99.90;;;;;;6273210;28;20052;-89
2023/12/19 05:42:54;;;;;;;4.28;1.30;;;12.40;99.90;;;;;;6274677;28;20068;-89
2023/12/19 05:45:56;;;;;;;3.95;1.40;;;12.50;99.90;;;;;;6252133;28;20053;-83
2023/12/19 05:48:57;;;;;;;3.67;1.30;;;12.50;99.90;;;;;;6254376;28;20045;-89
2023/12/19 05:51:59;;;;;;;4.45;1.40;;;12.50;99.90;;;;;;6257275;28;20049;-89
2023/12/19 05:55:01;;;;;;;5.90;1.85;;;12.50;99.90;;;;;;6249514;28;20050;-89
2023/12/19 05:58:02;;;;;;;6.53;2.05;;;12.50;99.90;;;;;;6266587;28;20246;-88
2023/12/19 06:01:04;;;;;;;5.57;2.05;;;12.40;99.90;;;;;;6269712;28;20076;-88
2023/12/19 06:04:06;;;;;;;5.78;2.10;;;12.50;99.90;;;;;;6269384;28;20064;-90
2023/12/19 06:07:08;;;;;;;6.47;2.55;;;12.40;99.90;;;;;;6253305;28;20048;-88
2023/12/19 06:10:09;;;;;;;7.38;2.28;;;12.40;99.90;;;;;;6252139;28;20044;-89
2023/12/19 06:13:11;;;;;;;6.45;2.55;;;12.40;99.90;;;;;;6259482;28;20057;-88
2023/12/19 06:16:13;;;;;;;6.25;2.70;;;12.40;99.90;;;;;;6261651;28;20059;-88
2023/12/19 06:19:15;;;;;;;7.85;2.92;;;12.50;99.90;;;;;;6279155;28;20401;-86
2023/12/19 06:22:17;;;;;;;5.95;2.58;;;12.40;99.90;;;;;;6279763;28;20055;-87
2023/12/19 06:25:19;;;;;;;7.63;2.70;;;12.40;99.90;;;;;;6268607;28;20122;-85
2023/12/19 06:28:21;;;;;;;7.32;2.30;;;12.40;99.90;;;;;;6269296;28;20060;-88
2023/12/19 06:31:23;;;;;;;6.57;2.38;;;12.40;99.90;;;;;;6263640;28;20061;-88
2023/12/19 06:34:25;;;;;;;5.20;2.22;;;12.30;99.90;;;;;;6253106;28;20060;-86
2023/12/19 06:37:26;;;;;;;5.38;2.50;;;12.40;99.90;;;;;;6275077;28;20167;-84
2023/12/19 06:40:28;;;;;;;5.07;2.17;;;12.30;99.90;;;;;;6271193;28;20093;-88
2023/12/19 06:43:30;;;;;;;5.20;2.03;;;12.40;99.90;;;;;;6256394;28;20048;-87
2023/12/19 06:46:31;;;;;;;4.93;1.90;;;12.30;99.90;;;;;;6251426;28;20065;-86
2023/12/19 06:49:33;;;;;;;5.05;1.95;;;12.30;99.90;;;;;;6275344;28;20049;-87
2023/12/19 06:52:35;;;;;;;5.45;2.13;;;12.30;99.90;;;;;;6254024;28;20393;-88
2023/12/19 06:55:36;;;;;;;4.75;1.77;;;12.30;99.90;;;;;;6279750;28;20139;-86
2023/12/19 06:58:38;;;;;;;4.28;1.52;;;12.30;99.90;;;;;;6262415;28;20494;-86
2023/12/19 07:01:40;;;;;;;4.97;1.65;;;12.40;99.90;;;;;;6255391;28;20056;-87
2023/12/19 07:04:41;;;;;;;5.30;1.35;;;12.30;99.90;;;;;;6279681;28;20064;-88
2023/12/19 07:07:43;;;;;;;3.45;1.17;;;12.30;99.90;;;;;;6254455;28;20057;-87
2023/12/19 07:10:45;;;;;;;3.88;1.20;;;12.30;99.90;;;;;;6276130;28;20057;-86
2023/12/19 07:13:46;;;;;;;4.55;1.20;;;12.30;99.90;;;;;;6267168;28;20052;-87
2023/12/19 07:16:48;;;;;;;4.35;1.10;;;12.30;99.90;;;;;;6255956;28;20057;-88
2023/12/19 07:19:50;;;;;;;2.30;0.88;;;12.30;99.90;;;;;;6280515;28;20413;-87
2023/12/19 07:22:52;;;;;;;3.33;1.00;;;12.30;99.90;;;;;;6254435;28;20153;-87
2023/12/19 07:25:56;;;;;;;2.80;1.10;;;12.40;99.90;;;;;;6249453;28;20057;-86
2023/12/19 07:28:57;;;;;;;2.70;0.90;;;12.30;99.90;;;;;;6259842;28;20128;-87
2023/12/19 07:32:00;;;;;;;2.58;0.90;;;12.30;99.90;;;;;;6277440;28;20057;-87
2023/12/19 07:35:02;;;;;;;2.47;0.85;;;12.30;99.90;;;;;;6270896;28;20052;-88
2023/12/19 07:38:04;;;;;;;2.70;0.90;;;12.40;99.90;;;;;;6275404;28;20110;-87
2023/12/19 07:41:06;;;;;;;3.67;0.68;;;12.30;99.90;;;;;;6276989;28;20063;-87
2023/12/19 07:44:10;;;;;;;2.50;0.90;;;12.30;99.90;;;;;;6257935;28;20075;-85
2023/12/19 07:47:12;;;;;;;1.75;0.70;;;12.40;99.90;;;;;;6252010;28;20049;-87
2023/12/19 07:50:14;;;;;;;2.38;0.80;;;12.30;99.90;;;;;;6275800;28;20052;-86
2023/12/19 07:53:15;;;;;;;1.63;0.60;;;12.30;99.90;;;;;;6253103;28;20489;-86
2023/12/19 07:56:17;;;;;;;2.05;0.80;;;12.30;99.90;;;;;;6275402;28;20071;-87
2023/12/19 07:59:19;;;;;;;2.83;0.80;;;12.30;99.90;;;;;;6263007;28;20331;-87
2023/12/19 08:02:21;;;;;;;4.60;1.00;;;12.30;99.90;;;;;;6250537;28;20050;-87
2023/12/19 08:05:23;;;;;;;2.95;1.35;;;12.40;99.90;;;;;;6273717;28;20182;-84
2023/12/19 08:08:25;;;;;;;3.25;1.38;;;12.40;99.90;;;;;;6250947;28;20045;-85
2023/12/19 08:11:26;;;;;;;3.30;1.50;;;12.40;99.90;;;;;;6274631;28;20053;-88
2023/12/19 08:14:28;;;;;;;2.90;1.70;;;12.40;99.90;;;;;;6247232;28;20041;-87
2023/12/19 08:17:29;;;;;;;3.40;1.88;;;12.40;99.90;;;;;;6258250;28;20076;-86
2023/12/19 08:20:33;;;;;;;4.75;1.83;;;12.40;99.90;;;;;;6274601;28;20556;-87
2023/12/19 08:23:34;;;;;;;3.90;1.95;;;12.40;99.90;;;;;;6247977;28;20397;-87
2023/12/19 08:26:36;;;;;;;5.38;2.28;;;12.40;99.90;;;;;;6251348;28;20132;-88
2023/12/19 08:29:39;;;;;;;3.30;2.17;;;12.40;99.90;;;;;;6270306;28;20052;-89
2023/12/19 08:32:41;;;;;;;3.50;2.13;;;12.40;99.90;;;;;;6267044;28;20127;-90
2023/12/19 08:35:44;;;;;;;3.63;2.15;;;12.50;99.90;;;;;;6248270;28;20083;-89
2023/12/19 08:38:46;;;;;;;5.47;1.95;;;12.50;99.90;;;;;;6249425;28;20056;-87
2023/12/19 08:41:48;;;;;;;3.15;1.73;;;12.50;99.90;;;;;;6271725;28;20076;-90
2023/12/19 08:44:50;;;;;;;4.45;2.03;;;12.40;99.90;;;;;;6256980;28;20825;-92
2023/12/19 08:47:53;;;;;;;3.10;1.75;;;12.50;99.90;;;;;;6268584;28;20049;-89
2023/12/19 08:50:54;;;;;;;5.10;1.73;;;12.50;99.90;;;;;;6272648;28;20053;-89
2023/12/19 08:53:56;;;;;;;2.90;1.58;;;12.50;99.90;;;;;;6273169;28;20056;-89
2023/12/19 08:56:59;;;;;;;4.47;1.60;;;12.50;99.90;;;;;;6252805;28;20057;-88
2023/12/19 09:00:00;;;;;;;4.22;2.10;;;12.50;99.90;;;;;;6269395;28;20059;-85
2023/12/19 09:03:05;;;;;;;3.17;1.60;;;12.50;99.90;;;;;;6249708;28;20448;-85
2023/12/19 09:06:07;;;;;;;3.58;1.70;;;12.50;99.90;;;;;;6266212;28;20443;-85
2023/12/19 09:09:11;;;;;;;4.00;1.60;;;12.50;99.90;;;;;;6273065;28;20053;-85
2023/12/19 09:12:13;;;;;;;3.47;1.65;;;12.50;99.90;;;;;;6247793;28;20167;-86
2023/12/19 09:15:15;;;;;;;3.38;1.38;;;12.50;99.90;;;;;;6269230;28;20075;-87
2023/12/19 09:18:17;;;;;;;2.67;1.20;;;12.50;99.90;;;;;;6246566;28;20416;-86
2023/12/19 09:21:19;;;;;;;3.20;1.20;;;12.50;99.90;;;;;;6261932;28;20049;-83
2023/12/19 09:24:21;;;;;;;3.30;1.40;;;12.50;99.90;;;;;;6250018;28;20056;-82
2023/12/19 09:27:24;;;;;;;2.67;1.30;;;12.50;99.90;;;;;;6259566;28;20057;-84
2023/12/19 09:30:26;;;;;;;3.47;1.30;;;12.50;99.90;;;;;;6265696;28;20061;-82
2023/12/19 09:33:28;;;;;;;3.28;1.30;;;12.50;99.90;;;;;;6267533;28;20497;-82
2023/12/19 09:36:29;;;;;;;3.25;1.25;;;12.50;99.90;;;;;;6243830;28;20055;-81
2023/12/19 09:39:32;;;;;;;3.05;1.30;;;12.50;99.90;;;;;;6260469;28;20072;-82
2023/12/19 09:42:33;;;;;;;3.72;1.10;;;12.60;99.90;;;;;;6267516;28;20535;-84
2023/12/19 09:45:35;;;;;;;2.78;1.38;;;12.60;99.90;;;;;;6251550;28;20566;-84
2023/12/19 09:48:37;;;;;;;2.95;1.02;;;12.60;99.90;;;;;;6261303;28;20067;-83
2023/12/19 09:51:42;;;;;;;2.50;1.13;;;12.70;99.90;;;;;;6268025;28;20049;-81
2023/12/19 09:54:43;;;;;;;3.15;1.20;;;12.60;99.90;;;;;;6264016;28;20858;-82
2023/12/19 09:57:47;;;;;;;3.75;1.20;;;12.70;99.90;;;;;;6256757;28;20049;-83
2023/12/19 10:00:58;;;;;;;3.05;1.20;;;12.60;99.90;;;;;;6251286;28;20049;-82
2023/12/19 10:04:02;;;;;;;4.95;1.30;;;12.70;99.90;;;;;;6261833;28;20503;-84
2023/12/19 10:07:06;;;;;;;3.85;1.10;;;12.70;99.90;;;;;;6263402;28;20552;-84
2023/12/19 10:10:11;;;;;;;1.98;1.00;;;12.70;99.90;;;;;;6252175;28;20049;-84
2023/12/19 10:13:13;;;;;;;3.15;0.90;;;12.60;99.90;;;;;;6251177;28;20667;-82
2023/12/19 10:16:18;;;;;;;2.38;1.00;;;12.70;99.90;;;;;;6265902;28;20060;-83
2023/12/19 10:19:34;;;;;;;3.47;1.02;;;12.70;99.90;;;;;;6263178;28;20060;-83
2023/12/19 10:22:36;;;;;;;2.47;0.90;;;12.70;99.90;;;;;;6254025;28;20077;-83
2023/12/19 10:25:38;;;;;;;3.20;1.20;;;12.70;99.90;;;;;;6260825;28;20049;-82
2023/12/19 10:28:47;;;;;;;2.42;0.90;;;12.70;99.90;;;;;;6259748;28;20116;-85
2023/12/19 10:31:49;;;;;;;5.57;1.10;;;12.70;99.90;;;;;;6261688;28;20060;-83
2023/12/19 10:34:50;;;;;;;2.08;1.08;;;12.70;99.90;;;;;;6255248;28;20093;-84
2023/12/19 10:37:52;;;;;;;2.80;1.30;;;12.70;99.90;;;;;;6251361;28;20060;-83
2023/12/19 10:40:54;;;;;;;4.05;1.35;;;12.70;99.90;;;;;;6267598;28;20056;-82
2023/12/19 10:43:59;;;;;;;6.18;1.50;;;12.70;99.90;;;;;;6249228;28;20045;-82
2023/12/19 10:47:00;;;;;;;3.85;0.80;;;12.70;99.90;;;;;;6265977;28;20049;-81
2023/12/19 10:50:02;;;;;;;2.75;0.68;;;12.50;99.90;;;;;;6257275;28;20128;-81
2023/12/19 10:53:05;;;;;;;2.03;0.77;;;12.30;99.90;;;;;;6266495;28;20053;-81
2023/12/19 10:56:06;;;;;;;1.70;0.70;;;12.10;99.90;;;;;;6261874;28;20708;-84
2023/12/19 10:59:08;;;;;;;2.33;0.80;;;11.90;99.90;;;;;;6257493;28;20373;-83
2023/12/19 11:02:10;;;;;;;1.60;0.70;;;11.60;99.90;;;;;;6268133;28;20056;-81
2023/12/19 11:05:11;;;;;;;1.70;0.70;;;11.50;99.90;;;;;;6248399;28;20187;-83
2023/12/19 11:08:17;;;;;;;2.80;0.70;;;11.30;99.90;;;;;;6250341;28;20058;-84
2023/12/19 11:11:19;;;;;;;5.43;0.85;;;11.20;99.90;;;;;;6259692;28;20184;-83
2023/12/19 11:14:23;;;;;;;2.83;0.80;;;11.00;99.90;;;;;;6259738;28;20064;-84
2023/12/19 11:17:30;;;;;;;3.80;1.10;;;11.00;99.90;;;;;;6257314;28;20051;-83
2023/12/19 11:20:32;;;;;;;4.18;0.80;;;10.90;99.90;;;;;;6266865;28;20045;-81
2023/12/19 11:23:37;;;;;;;2.80;0.90;;;10.80;99.90;;;;;;6262623;28;20519;-83
2023/12/19 11:26:39;;;;;;;2.00;0.70;;;10.80;99.90;;;;;;6268257;28;20060;-84
2023/12/19 11:29:40;;;;;;;2.10;0.73;;;10.80;99.90;;;;;;6272227;28;20106;-86
2023/12/19 11:32:42;;;;;;;2.05;0.70;;;10.70;99.90;;;;;;6256107;28;20049;-86
2023/12/19 11:35:44;;;;;;;2.38;0.80;;;10.80;99.90;;;;;;6249849;28;20513;-84
2023/12/19 11:38:49;;;;;;;3.85;1.08;;;10.80;99.90;;;;;;6260622;28;20538;-84
2023/12/19 11:41:51;;;;;;;3.20;1.10;;;10.80;99.90;;;;;;6267575;28;20054;-84
2023/12/19 11:44:52;;;;;;;3.40;0.95;;;10.80;99.90;;;;;;6261690;28;20603;-84
2023/12/19 11:47:55;;;;;;;4.68;1.33;;;10.80;99.90;;;;;;6269943;28;20056;-84
2023/12/19 11:50:57;;;;;;;4.47;1.42;;;10.80;99.90;;;;;;6247743;28;20057;-83
2023/12/19 11:53:59;;;;;;;4.45;1.50;;;10.90;99.90;;;;;;6266682;28;20049;-84
2023/12/19 11:57:01;;;;;;;3.65;1.52;;;10.90;99.90;;;;;;6270731;28;20051;-84
2023/12/19 12:00:06;;;;;;;4.45;1.67;;;10.90;99.90;;;;;;6247951;28;20053;-86
2023/12/19 12:03:08;;;;;;;5.28;1.70;;;10.90;99.90;;;;;;6271478;28;20095;-84
2023/12/19 12:06:09;;;;;;;5.00;1.67;;;10.80;99.90;;;;;;6246919;28;20052;-85
2023/12/19 12:09:11;;;;;;;4.07;1.30;;;10.80;99.90;;;;;;6270322;28;20048;-83
2023/12/19 12:12:13;;;;;;;4.35;1.30;;;10.80;99.90;;;;;;6246798;28;20413;-83
2023/12/19 12:15:16;;;;;;;3.20;1.20;;;10.80;99.90;;;;;;6264662;28;20061;-83
2023/12/19 12:18:18;;;;;;;2.72;1.30;;;10.80;99.90;;;;;;6252901;28;20588;-83
2023/12/19 12:21:20;;;;;;;3.30;1.00;;;10.80;99.90;;;;;;6262356;28;20060;-83
2023/12/19 12:24:21;;;;;;;5.30;1.40;;;10.80;99.90;;;;;;6265634;28;20059;-82
2023/12/19 12:27:33;;;;;;;2.65;1.08;;;10.80;99.90;;;;;;6248983;28;20417;-83
2023/12/19 12:30:35;;;;;;;3.47;1.20;;;10.80;99.90;;;;;;6255123;28;20445;-83
2023/12/19 12:33:37;;;;;;;3.05;1.23;;;10.80;99.90;;;;;;6262870;28;20134;-85
2023/12/19 12:36:39;;;;;;;3.72;1.42;;;10.80;99.90;;;;;;6271105;28;20060;-84
2023/12/19 12:39:41;;;;;;;3.30;1.50;;;10.80;99.90;;;;;;6245733;28;20052;-84
2023/12/19 12:42:42;;;;;;;4.10;1.40;;;10.80;99.90;;;;;;6267098;28;20559;-84
2023/12/19 12:45:44;;;;;;;6.15;1.70;;;10.80;99.90;;;;;;6259037;28;20056;-84
2023/12/19 12:48:46;;;;;;;5.13;1.73;;;10.80;99.90;;;;;;6245447;28;20144;-84
2023/12/19 12:51:48;;;;;;;4.45;1.80;;;10.80;99.90;;;;;;6269668;28;20049;-84
2023/12/19 12:54:49;;;;;;;4.13;1.83;;;10.80;99.90;;;;;;6247052;28;20064;-85
2023/12/19 12:57:51;;;;;;;4.03;1.73;;;10.80;99.90;;;;;;6265982;28;20537;-84
2023/12/19 13:00:53;;;;;;;4.22;2.00;;;10.90;99.90;;;;;;6246337;28;20493;-84
2023/12/19 13:03:55;;;;;;;4.55;1.77;;;10.90;99.90;;;;;;6247527;28;20060;-85
2023/12/19 13:06:56;;;;;;;4.07;1.70;;;10.90;99.90;;;;;;6278394;28;20088;-85
2023/12/19 13:09:58;;;;;;;4.00;2.13;;;10.90;99.90;;;;;;6269354;28;20106;-85
2023/12/19 13:13:00;;;;;;;3.78;1.73;;;10.90;99.90;;;;;;6266461;28;20057;-85
2023/12/19 13:16:02;;;;;;;3.75;1.70;;;10.90;99.90;;;;;;6246663;28;20053;-86
2023/12/19 13:19:04;;;;;;;3.55;1.70;;;10.90;99.90;;;;;;6271728;28;20183;-86
2023/12/19 13:22:06;;;;;;;6.70;2.05;;;10.90;99.90;;;;;;6247238;28;20132;-84
2023/12/19 13:25:09;;;;;;;3.85;1.60;;;10.80;99.90;;;;;;6270337;28;20052;-85
2023/12/19 13:28:11;;;;;;;6.65;1.50;;;10.80;99.90;;;;;;6250749;28;20600;-85
2023/12/19 13:31:13;;;;;;;3.60;1.50;;;10.70;99.90;;;;;;6271572;28;20155;-85
2023/12/19 13:34:15;;;;;;;4.68;1.50;;;10.70;99.90;;;;;;6254527;28;20057;-86
2023/12/19 13:37:17;;;;;;;4.18;1.70;;;10.70;99.90;;;;;;6247206;28;20501;-85
2023/12/19 13:40:19;;;;;;;5.63;1.70;;;10.60;99.90;;;;;;6271396;28;20412;-86
2023/12/19 13:43:21;;;;;;;2.97;1.60;;;10.50;99.90;;;;;;6253775;28;20072;-85
2023/12/19 13:46:23;;;;;;;3.97;1.50;;;10.40;99.90;;;;;;6272007;28;20520;-84
2023/12/19 13:49:25;;;;;;;5.32;1.70;;;10.40;99.90;;;;;;6246351;28;20045;-85
2023/12/19 13:52:27;;;;;;;4.70;1.60;;;10.40;99.90;;;;;;6245400;28;20144;-85
2023/12/19 13:55:34;;;;;;;3.03;1.63;;;10.20;99.90;;;;;;6258782;28;20055;-85
2023/12/19 13:58:36;;;;;;;3.60;1.58;;;10.20;99.90;;;;;;6250172;28;20048;-84
2023/12/19 14:01:37;;;;;;;5.15;1.80;;;10.20;99.90;;;;;;6269363;28;20072;-84
2023/12/19 14:04:39;;;;;;;3.90;1.70;;;10.10;99.90;;;;;;6245862;28;20540;-84
2023/12/19 14:07:41;;;;;;;4.95;1.70;;;10.10;99.90;;;;;;6269178;28;20071;-85
2023/12/19 14:10:43;;;;;;;3.63;1.75;;;10.10;99.90;;;;;;6247740;28;20057;-85
2023/12/19 14:13:45;;;;;;;3.78;1.77;;;10.10;99.90;;;;;;6259347;28;20049;-86
2023/12/19 14:16:47;;;;;;;5.45;1.80;;;10.10;99.90;;;;;;6270318;28;20049;-87
2023/12/19 14:19:48;;;;;;;3.55;1.58;;;10.10;99.90;;;;;;6246613;28;20544;-86
2023/12/19 14:22:50;;;;;;;4.30;1.90;;;10.10;99.90;;;;;;6269922;28;20045;-84
2023/12/19 14:25:52;;;;;;;4.38;1.77;;;10.10;99.90;;;;;;6251339;28;20056;-86
2023/12/19 14:28:54;;;;;;;5.53;1.85;;;10.10;99.90;;;;;;6258799;28;20049;-85
2023/12/19 14:31:56;;;;;;;6.78;2.03;;;10.10;99.90;;;;;;6251608;28;20049;-85
2023/12/19 14:34:57;;;;;;;4.75;1.90;;;10.10;99.90;;;;;;6270520;28;20037;-85
2023/12/19 14:37:59;;;;;;;4.28;2.13;;;10.10;99.90;;;;;;6251855;28;20045;-87
2023/12/19 14:41:01;;;;;;;7.53;2.50;;;10.10;99.90;;;;;;6276451;28;20045;-88
2023/12/19 14:44:02;;;;;;;5.95;2.45;;;10.10;99.90;;;;;;6264303;28;20497;-87
2023/12/19 14:47:04;;;;;;;7.00;2.60;;;10.00;99.90;;;;;;6263339;28;20214;-89
2023/12/19 14:50:06;;;;;;;4.45;2.10;;;10.00;99.90;;;;;;6251181;28;20060;-88
2023/12/19 14:53:08;;;;;;;4.45;2.20;;;10.00;99.90;;;;;;6274504;28;20059;-90
2023/12/19 14:56:10;;;;;;;7.38;2.20;;;10.00;99.90;;;;;;6253762;28;20045;-88
2023/12/19 14:59:11;;;;;;;5.80;2.50;;;10.00;99.90;;;;;;6270844;28;20585;-86
2023/12/19 15:02:13;;;;;;;4.40;2.00;;;10.00;99.90;;;;;;6256950;28;20052;-86
2023/12/19 15:05:15;;;;;;;4.13;2.20;;;10.00;99.90;;;;;;6261840;28;20049;-85
2023/12/19 15:08:17;;;;;;;6.00;2.50;;;9.90;99.90;;;;;;6269957;28;20075;-86
2023/12/19 15:11:19;;;;;;;4.82;2.40;;;9.90;99.90;;;;;;6263087;28;20052;-85
2023/12/19 15:14:20;;;;;;;6.00;2.70;;;9.90;99.90;;;;;;6260311;28;20052;-86
2023/12/19 15:17:22;;;;;;;5.20;2.50;;;9.90;99.90;;;;;;6269522;28;20392;-85
2023/12/19 15:20:24;;;;;;;6.35;2.72;;;9.90;99.90;;;;;;6251492;28;20117;-86
2023/12/19 15:23:26;;;;;;;8.23;2.90;;;10.00;99.90;;;;;;6267451;28;20141;-85
2023/12/19 15:26:27;;;;;;;4.90;2.70;;;10.00;99.90;;;;;;6247462;28;20390;-86
2023/12/19 15:29:29;;;;;;;5.90;2.83;;;9.90;99.90;;;;;;6268746;28;20057;-85
2023/12/19 15:32:30;;;;;;;5.63;2.92;;;9.90;99.90;;;;;;6260507;28;20053;-88
2023/12/19 15:35:32;;;;;;;7.13;3.00;;;9.90;99.90;;;;;;6273011;28;20110;-86
2023/12/19 15:38:34;;;;;;;6.45;3.15;;;9.90;99.90;;;;;;6271753;28;20046;-86
2023/12/19 15:41:35;;;;;;;4.63;2.50;;;9.80;99.90;;;;;;6250547;28;20057;-87
2023/12/19 15:44:37;;;;;;;4.20;2.05;;;9.70;99.90;;;;;;6264528;28;20101;-87